UAL8185 KSFO-PHNL
Flight info
| Callsign | UAL8185 |
|---|---|
| Flight time | N/A |
| Altitude | 36000 |
| Route | GNNRR3 BEBOP R464 BEKME/N0443F380 R464 BITTA MAGGI3 |
| Aircraft | A320/M-SDE3FGHIRWY/LB1 |
Departure
| Time | 2026-05-04 04:04 |
|---|---|
| Airport | San Francisco International Airport (KSFO) |
Arrival
| Time | N/A |
|---|---|
| Airport | Daniel K. Inouye International Airport (PHNL) |
| Time | Latitude | Longitude | Altitude | Speed | Heading |
|---|---|---|---|---|---|
| 2026-05-04 03:34 | 37.61378 | -122.38947 | 31 ft | 0 kts | 119° |
| 2026-05-04 03:49 | 37.61380 | -122.38952 | 31 ft | 1 kts | 97° |
| 2026-05-04 03:49 | 37.61380 | -122.38970 | 31 ft | 2 kts | 98° |
| 2026-05-04 03:50 | 37.61382 | -122.38985 | 31 ft | 2 kts | 98° |
| 2026-05-04 03:50 | 37.61384 | -122.39005 | 31 ft | 2 kts | 97° |
| 2026-05-04 03:50 | 37.61386 | -122.39023 | 30 ft | 2 kts | 97° |
| 2026-05-04 03:50 | 37.61388 | -122.39041 | 30 ft | 2 kts | 98° |
| 2026-05-04 03:51 | 37.61389 | -122.39052 | 30 ft | 0 kts | 110° |
| 2026-05-04 03:51 | 37.61391 | -122.39056 | 30 ft | 0 kts | 164° |
| 2026-05-04 03:51 | 37.61388 | -122.39056 | 30 ft | 0 kts | 171° |
| 2026-05-04 03:51 | 37.61379 | -122.39062 | 30 ft | 4 kts | 211° |
| 2026-05-04 03:52 | 37.61351 | -122.39081 | 30 ft | 2 kts | 207° |
| 2026-05-04 03:52 | 37.61346 | -122.39084 | 30 ft | 0 kts | 207° |
| 2026-05-04 03:54 | 37.61341 | -122.39087 | 30 ft | 1 kts | 207° |
| 2026-05-04 03:54 | 37.61319 | -122.39102 | 29 ft | 6 kts | 209° |
| 2026-05-04 03:54 | 37.61264 | -122.39139 | 28 ft | 11 kts | 208° |
| 2026-05-04 03:54 | 37.61175 | -122.39177 | 28 ft | 15 kts | 168° |
| 2026-05-04 03:55 | 37.61086 | -122.39118 | 28 ft | 16 kts | 129° |
| 2026-05-04 03:55 | 37.61024 | -122.39019 | 28 ft | 10 kts | 125° |
| 2026-05-04 03:55 | 37.60975 | -122.38939 | 29 ft | 12 kts | 129° |
| 2026-05-04 03:55 | 37.60917 | -122.38844 | 30 ft | 14 kts | 118° |
| 2026-05-04 03:56 | 37.60867 | -122.38724 | 31 ft | 16 kts | 118° |
| 2026-05-04 03:56 | 37.60812 | -122.38594 | 31 ft | 17 kts | 118° |
| 2026-05-04 03:56 | 37.60750 | -122.38502 | 31 ft | 13 kts | 173° |
| 2026-05-04 03:56 | 37.60659 | -122.38454 | 31 ft | 16 kts | 133° |
| 2026-05-04 03:57 | 37.60576 | -122.38335 | 29 ft | 19 kts | 129° |
| 2026-05-04 03:57 | 37.60510 | -122.38214 | 28 ft | 15 kts | 114° |
| 2026-05-04 03:57 | 37.60511 | -122.38069 | 26 ft | 16 kts | 81° |
| 2026-05-04 03:57 | 37.60578 | -122.37952 | 23 ft | 19 kts | 29° |
| 2026-05-04 03:58 | 37.60846 | -122.37772 | 21 ft | 23 kts | 27° |
| 2026-05-04 03:58 | 37.60990 | -122.37677 | 22 ft | 23 kts | 27° |
| 2026-05-04 03:58 | 37.61086 | -122.37614 | 20 ft | 23 kts | 28° |
| 2026-05-04 03:59 | 37.61234 | -122.37514 | 18 ft | 24 kts | 29° |
| 2026-05-04 03:59 | 37.61383 | -122.37415 | 17 ft | 20 kts | 27° |
| 2026-05-04 03:59 | 37.61503 | -122.37331 | 15 ft | 16 kts | 41° |
| 2026-05-04 03:59 | 37.61558 | -122.37202 | 14 ft | 17 kts | 83° |
| 2026-05-04 04:00 | 37.61529 | -122.37060 | 12 ft | 16 kts | 117° |
| 2026-05-04 04:00 | 37.61473 | -122.36935 | 12 ft | 16 kts | 126° |
| 2026-05-04 04:00 | 37.61396 | -122.36829 | 12 ft | 16 kts | 134° |
| 2026-05-04 04:00 | 37.61333 | -122.36708 | 12 ft | 16 kts | 116° |
| 2026-05-04 04:01 | 37.61280 | -122.36577 | 12 ft | 16 kts | 118° |
| 2026-05-04 04:01 | 37.61224 | -122.36443 | 10 ft | 17 kts | 117° |
| 2026-05-04 04:01 | 37.61164 | -122.36303 | 8 ft | 18 kts | 117° |
| 2026-05-04 04:01 | 37.61105 | -122.36160 | 8 ft | 18 kts | 117° |
| 2026-05-04 04:02 | 37.61052 | -122.36029 | 8 ft | 13 kts | 108° |
| 2026-05-04 04:02 | 37.61079 | -122.35920 | 9 ft | 13 kts | 38° |
| 2026-05-04 04:02 | 37.61099 | -122.35905 | 8 ft | 0 kts | 28° |
| 2026-05-04 04:02 | 37.61100 | -122.35905 | 8 ft | 1 kts | 28° |
| 2026-05-04 04:03 | 37.61126 | -122.35887 | 8 ft | 7 kts | 24° |
| 2026-05-04 04:03 | 37.61187 | -122.35903 | 8 ft | 10 kts | 322° |
| 2026-05-04 04:03 | 37.61221 | -122.35950 | 8 ft | 0 kts | 300° |
| 2026-05-04 04:03 | 37.61256 | -122.36031 | 8 ft | 39 kts | 297° |
| 2026-05-04 04:04 | 37.61501 | -122.36618 | 12 ft | 108 kts | 297° |
| 2026-05-04 04:04 | 37.61939 | -122.37675 | 29 ft | 160 kts | 295° |
| 2026-05-04 04:04 | 37.62455 | -122.38950 | 477 ft | 168 kts | 296° |
| 2026-05-04 04:04 | 37.63010 | -122.40244 | 1205 ft | 166 kts | 297° |
| 2026-05-04 04:05 | 37.63555 | -122.41464 | 1977 ft | 161 kts | 298° |
| 2026-05-04 04:05 | 37.64125 | -122.42738 | 2393 ft | 174 kts | 298° |
| 2026-05-04 04:05 | 37.64741 | -122.44128 | 2779 ft | 191 kts | 298° |
| 2026-05-04 04:05 | 37.65413 | -122.45648 | 3106 ft | 212 kts | 298° |
| 2026-05-04 04:06 | 37.66166 | -122.47353 | 3535 ft | 231 kts | 298° |
| 2026-05-04 04:06 | 37.66951 | -122.49216 | 3996 ft | 249 kts | 291° |
| 2026-05-04 04:06 | 37.67207 | -122.51384 | 4457 ft | 263 kts | 262° |
| 2026-05-04 04:06 | 37.66716 | -122.53616 | 5172 ft | 269 kts | 250° |
| 2026-05-04 04:07 | 37.66104 | -122.55881 | 5901 ft | 276 kts | 250° |
| 2026-05-04 04:07 | 37.65490 | -122.58186 | 6631 ft | 282 kts | 250° |
| 2026-05-04 04:07 | 37.64873 | -122.60525 | 7383 ft | 286 kts | 250° |
| 2026-05-04 04:07 | 37.64246 | -122.62923 | 8158 ft | 290 kts | 250° |
| 2026-05-04 04:08 | 37.63617 | -122.65330 | 8903 ft | 293 kts | 250° |
| 2026-05-04 04:08 | 37.62980 | -122.67781 | 9644 ft | 296 kts | 250° |
| 2026-05-04 04:08 | 37.62339 | -122.70245 | 10353 ft | 301 kts | 250° |
| 2026-05-04 04:08 | 37.61671 | -122.72807 | 10767 ft | 315 kts | 250° |
| 2026-05-04 04:09 | 37.60984 | -122.75447 | 11243 ft | 326 kts | 250° |
| 2026-05-04 04:09 | 37.60275 | -122.78174 | 11931 ft | 329 kts | 250° |
| 2026-05-04 04:09 | 37.59561 | -122.80915 | 12615 ft | 332 kts | 250° |
| 2026-05-04 04:09 | 37.58841 | -122.83684 | 13273 ft | 335 kts | 250° |
| 2026-05-04 04:10 | 37.58109 | -122.86491 | 13929 ft | 339 kts | 250° |
| 2026-05-04 04:10 | 37.57378 | -122.89293 | 14560 ft | 342 kts | 250° |
| 2026-05-04 04:10 | 37.56632 | -122.92149 | 15182 ft | 345 kts | 250° |
| 2026-05-04 04:10 | 37.55884 | -122.95010 | 15795 ft | 349 kts | 250° |
| 2026-05-04 04:11 | 37.55123 | -122.97917 | 16395 ft | 352 kts | 250° |
| 2026-05-04 04:11 | 37.54351 | -123.00860 | 16997 ft | 355 kts | 250° |
| 2026-05-04 04:11 | 37.53579 | -123.03799 | 17555 ft | 359 kts | 250° |
| 2026-05-04 04:11 | 37.52787 | -123.06805 | 18112 ft | 362 kts | 250° |
| 2026-05-04 04:12 | 37.51992 | -123.09826 | 18658 ft | 365 kts | 250° |
| 2026-05-04 04:12 | 37.51194 | -123.12853 | 19172 ft | 369 kts | 250° |
| 2026-05-04 04:12 | 37.50386 | -123.15917 | 19676 ft | 373 kts | 250° |
| 2026-05-04 04:12 | 37.49568 | -123.19013 | 20176 ft | 377 kts | 250° |
| 2026-05-04 04:13 | 37.48736 | -123.22156 | 20679 ft | 380 kts | 250° |
| 2026-05-04 04:13 | 37.47902 | -123.25307 | 21164 ft | 384 kts | 250° |
| 2026-05-04 04:13 | 37.47052 | -123.28516 | 21671 ft | 387 kts | 250° |
| 2026-05-04 04:13 | 37.46206 | -123.31704 | 22169 ft | 390 kts | 250° |
| 2026-05-04 04:14 | 37.45341 | -123.34961 | 22612 ft | 395 kts | 250° |
| 2026-05-04 04:14 | 37.44477 | -123.38208 | 23054 ft | 399 kts | 250° |
| 2026-05-04 04:14 | 37.43591 | -123.41531 | 23518 ft | 403 kts | 250° |
| 2026-05-04 04:14 | 37.42699 | -123.44873 | 23993 ft | 405 kts | 250° |
| 2026-05-04 04:15 | 37.41797 | -123.48251 | 24454 ft | 408 kts | 250° |
| 2026-05-04 04:15 | 37.40891 | -123.51637 | 24884 ft | 411 kts | 250° |
| 2026-05-04 04:15 | 37.39984 | -123.55025 | 25325 ft | 413 kts | 250° |
| 2026-05-04 04:15 | 37.39075 | -123.58412 | 25762 ft | 415 kts | 250° |
| 2026-05-04 04:16 | 37.38153 | -123.61848 | 26169 ft | 417 kts | 250° |
| 2026-05-04 04:16 | 37.37214 | -123.65338 | 26565 ft | 420 kts | 249° |
| 2026-05-04 04:16 | 37.36283 | -123.68795 | 26932 ft | 423 kts | 249° |
| 2026-05-04 04:16 | 37.35344 | -123.72275 | 27348 ft | 424 kts | 249° |
| 2026-05-04 04:17 | 37.34395 | -123.75789 | 27724 ft | 426 kts | 250° |
| 2026-05-04 04:17 | 37.33447 | -123.79293 | 28065 ft | 428 kts | 250° |
| 2026-05-04 04:17 | 37.32492 | -123.82820 | 28394 ft | 430 kts | 250° |
| 2026-05-04 04:17 | 37.31521 | -123.86400 | 28688 ft | 433 kts | 250° |
| 2026-05-04 04:18 | 37.30548 | -123.89983 | 29019 ft | 434 kts | 250° |
| 2026-05-04 04:18 | 37.29575 | -123.93567 | 29332 ft | 436 kts | 250° |
| 2026-05-04 04:18 | 37.28604 | -123.97134 | 29613 ft | 438 kts | 250° |
| 2026-05-04 04:18 | 37.27617 | -124.00754 | 29880 ft | 440 kts | 250° |
| 2026-05-04 04:19 | 37.26630 | -124.04367 | 30159 ft | 441 kts | 250° |
| 2026-05-04 04:19 | 37.25634 | -124.08014 | 30419 ft | 441 kts | 250° |
| 2026-05-04 04:19 | 37.23036 | -124.17502 | 31144 ft | 440 kts | 250° |
| 2026-05-04 04:20 | 37.21502 | -124.23085 | 31540 ft | 439 kts | 250° |
| 2026-05-04 04:20 | 37.19948 | -124.28731 | 32013 ft | 434 kts | 250° |
| 2026-05-04 04:20 | 37.18495 | -124.33996 | 32612 ft | 426 kts | 250° |
| 2026-05-04 04:20 | 37.17028 | -124.39304 | 33139 ft | 418 kts | 250° |
| 2026-05-04 04:21 | 37.15579 | -124.44525 | 33680 ft | 410 kts | 250° |